Skip Navigation Links Skip Navigation Links

Current Weather

Danville Regional, Danville, Va.

For information only: do not use for flight planning or navigation.
Latest weather
Observation time Tuesday, June 25, 2019 1:53 PM EDT
Local time Tuesday, June 25, 2019 2:26 PM EDT
Flight conditions Visual Meteorological Conditions
Winds
Wind direction West (280°)
Wind speed 9 mph
Visibility 10 mi.
Sky condition
Ceiling unlimited
Cloud layer few clouds 6,500 ft.
Temperature 85°F
Dewpoint 67°F
Altimeter 29.98 in.Hg
Pressure change last 3 hours-0.01 in.Hg
Pressure rising, then falling
Derived measurements
Relative humidity 55%
Heat index 88°F
Density altitude 2463 ft.
Sea-level pressure 29.94 in.Hg
Climate data
Temperature minimum, last 6 hours 71°F
Temperature maximum, last 6 hours 85°F
Remarks
Fully automated report.
Automated weather observing station with precipitation discriminator.
METAR KDAN 251753Z AUTO 28008KT 10SM FEW065 29/19 A2998 RMK AO2 SLP139 T02940194 10294 20217 50002

Settings

Location code

InnerDrive.Weather 4.0.6770.0 Release CLR 4.0.30319.42000
Copyright ©2018 Inner Drive Technology. All rights reserved. Portions Copyright ©1986-2018 David Braverman.

Find weather

Site navigation


Skip Navigation Links

Place info

Page info

PayPal - The safer, easier way to pay online!

Return home.

Copyright ©2019 Inner Drive Technology. Purveyors of fine, hand-crafted computer software. Page printed 2019-06-25T18:26:13 UTC.